LIPY/AOI METAR and TAF weather

Enter ICAO airport designator
Station Type Date Time Source
LIPY METAR 2020/09/24 09:50 UTC NOAA

LIPY 240950Z AUTO 25009KT 9999 FEW230/// 26/15 Q1012


Station Type Date Time Source
LIPY Decoded METAR 2020/09/24 09:50 UTC NOAA

Falconara, Italy (LIPY) 43-37N 013-22E 10M
Sep 24, 2020 - 05:50 AM EDT / 2020.09.24 0950 UTC
Wind: from the WSW (250 degrees) at 10 MPH (9 KT):0
Visibility: greater than 7 mile(s):0
Sky conditions: mostly clear
Temperature: 78 F (26 C)
Dew Point: 59 F (15 C)
Relative Humidity: 50%
Pressure (altimeter): 29.88 in. Hg (1012 hPa)
ob: LIPY 240950Z AUTO 25009KT 9999 FEW230/// 26/15 Q1012
cycle: 10

Station Type Date Time Source
LIPY TAF 2020/09/24 06:21 UTC NOAA

TAF LIPY 240500Z 2406/2506 22008KT 9999 SCT050
BECMG 2408/2411 16012KT

Example: see airport list